sensor_id;sensor_type;location;lat;lon;timestamp;pressure;altitude;pressure_sealevel;temperature;humidity
70229;BME280;57617;51.988;5.854;2023-02-28T00:02:14;102691.56;;;4.86;59.46
70229;BME280;57617;51.988;5.854;2023-02-28T00:04:39;102692.94;;;4.90;59.17
70229;BME280;57617;51.988;5.854;2023-02-28T00:07:04;102694.47;;;4.92;59.34
70229;BME280;57617;51.988;5.854;2023-02-28T00:09:29;102688.44;;;4.98;59.12
70229;BME280;57617;51.988;5.854;2023-02-28T00:11:55;102693.22;;;5.04;58.76
70229;BME280;57617;51.988;5.854;2023-02-28T00:14:20;102700.28;;;5.05;59.33
70229;BME280;57617;51.988;5.854;2023-02-28T00:16:45;102695.72;;;5.06;59.26
70229;BME280;57617;51.988;5.854;2023-02-28T00:19:11;102693.91;;;5.06;59.38
70229;BME280;57617;51.988;5.854;2023-02-28T00:21:38;102685.66;;;5.08;59.43
70229;BME280;57617;51.988;5.854;2023-02-28T00:24:06;102694.13;;;5.13;59.32
70229;BME280;57617;51.988;5.854;2023-02-28T00:26:31;102703.38;;;5.18;59.11
70229;BME280;57617;51.988;5.854;2023-02-28T00:28:56;102686.91;;;5.21;58.91
70229;BME280;57617;51.988;5.854;2023-02-28T00:31:22;102694.28;;;5.19;59.14
70229;BME280;57617;51.988;5.854;2023-02-28T00:33:47;102680.53;;;5.22;59.26
70229;BME280;57617;51.988;5.854;2023-02-28T00:36:12;102683.72;;;5.26;59.16
70229;BME280;57617;51.988;5.854;2023-02-28T00:38:38;102679.88;;;5.28;59.38
70229;BME280;57617;51.988;5.854;2023-02-28T00:41:04;102680.38;;;5.32;59.10
70229;BME280;57617;51.988;5.854;2023-02-28T00:43:34;102688.16;;;5.35;58.75
70229;BME280;57617;51.988;5.854;2023-02-28T00:45:59;102688.53;;;5.40;59.00
70229;BME280;57617;51.988;5.854;2023-02-28T00:48:24;102688.53;;;5.40;58.90
70229;BME280;57617;51.988;5.854;2023-02-28T00:50:50;102680.13;;;5.43;58.89
70229;BME280;57617;51.988;5.854;2023-02-28T00:53:15;102682.63;;;5.44;58.69
70229;BME280;57617;51.988;5.854;2023-02-28T00:55:40;102684.50;;;5.44;58.38
70229;BME280;57617;51.988;5.854;2023-02-28T00:58:06;102681.97;;;5.42;58.21
70229;BME280;57617;51.988;5.854;2023-02-28T01:00:31;102684.34;;;5.45;58.38
70229;BME280;57617;51.988;5.854;2023-02-28T01:02:56;102684.00;;;5.48;58.45
70229;BME280;57617;51.988;5.854;2023-02-28T01:05:21;102679.47;;;5.49;58.47
70229;BME280;57617;51.988;5.854;2023-02-28T01:07:47;102694.13;;;5.46;58.18
70229;BME280;57617;51.988;5.854;2023-02-28T01:10:12;102688.88;;;5.45;58.67
70229;BME280;57617;51.988;5.854;2023-02-28T01:12:38;102682.81;;;5.43;59.06
70229;BME280;57617;51.988;5.854;2023-02-28T01:15:03;102684.66;;;5.42;59.05
70229;BME280;57617;51.988;5.854;2023-02-28T01:17:29;102680.97;;;5.43;58.83
70229;BME280;57617;51.988;5.854;2023-02-28T01:19:55;102682.63;;;5.44;58.88
70229;BME280;57617;51.988;5.854;2023-02-28T01:22:21;102665.81;;;5.42;59.11
70229;BME280;57617;51.988;5.854;2023-02-28T01:24:46;102685.03;;;5.47;59.14
70229;BME280;57617;51.988;5.854;2023-02-28T01:27:12;102692.59;;;5.44;59.36
70229;BME280;57617;51.988;5.854;2023-02-28T01:29:38;102688.22;;;5.43;59.29
70229;BME280;57617;51.988;5.854;2023-02-28T01:32:03;102696.13;;;5.44;59.07
70229;BME280;57617;51.988;5.854;2023-02-28T01:34:29;102688.88;;;5.45;59.26
70229;BME280;57617;51.988;5.854;2023-02-28T01:36:54;102685.34;;;5.44;58.62
70229;BME280;57617;51.988;5.854;2023-02-28T01:39:19;102685.19;;;5.46;59.10
70229;BME280;57617;51.988;5.854;2023-02-28T01:41:45;102688.03;;;5.44;59.13
70229;BME280;57617;51.988;5.854;2023-02-28T01:47:13;102680.66;;;5.46;59.29
70229;BME280;57617;51.988;5.854;2023-02-28T01:49:39;102667.19;;;5.46;58.49
70229;BME280;57617;51.988;5.854;2023-02-28T01:52:04;102667.47;;;5.43;58.83
70229;BME280;57617;51.988;5.854;2023-02-28T01:54:31;102673.94;;;5.50;59.41
70229;BME280;57617;51.988;5.854;2023-02-28T01:57:04;102667.19;;;5.46;59.14
70229;BME280;57617;51.988;5.854;2023-02-28T01:59:40;102673.06;;;5.50;58.91
70229;BME280;57617;51.988;5.854;2023-02-28T02:02:14;102676.63;;;5.50;59.07
70229;BME280;57617;51.988;5.854;2023-02-28T02:04:50;102673.06;;;5.50;59.07
70229;BME280;57617;51.988;5.854;2023-02-28T02:07:16;102676.44;;;5.52;58.54
70229;BME280;57617;51.988;5.854;2023-02-28T02:09:42;102667.53;;;5.51;58.88
70229;BME280;57617;51.988;5.854;2023-02-28T02:17:48;102671.41;;;5.57;59.62
70229;BME280;57617;51.988;5.854;2023-02-28T02:40:16;102678.03;;;5.70;58.52
70229;BME280;57617;51.988;5.854;2023-02-28T02:42:52;102635.31;;;5.42;58.08
70229;BME280;57617;51.988;5.854;2023-02-28T02:48:13;102670.28;;;5.67;57.69
70229;BME280;57617;51.988;5.854;2023-02-28T02:50:45;102672.63;;;5.70;58.19
70229;BME280;57617;51.988;5.854;2023-02-28T02:53:13;102675.31;;;5.70;57.69
70229;BME280;57617;51.988;5.854;2023-02-28T02:55:44;102686.66;;;5.74;57.74
70229;BME280;57617;51.988;5.854;2023-02-28T02:58:15;102682.94;;;5.75;57.47
70229;BME280;57617;51.988;5.854;2023-02-28T03:00:44;102681.63;;;5.79;57.59
70229;BME280;57617;51.988;5.854;2023-02-28T03:03:12;102667.25;;;5.70;57.62
70229;BME280;57617;51.988;5.854;2023-02-28T03:05:45;102688.84;;;5.78;57.44
70229;BME280;57617;51.988;5.854;2023-02-28T03:08:11;102691.03;;;5.75;57.11
70229;BME280;57617;51.988;5.854;2023-02-28T03:10:39;102684.63;;;5.76;56.44
70229;BME280;57617;51.988;5.854;2023-02-28T03:13:12;102691.84;;;5.75;57.02
70229;BME280;57617;51.988;5.854;2023-02-28T03:16:02;102691.03;;;5.75;56.45
70229;BME280;57617;51.988;5.854;2023-02-28T03:21:59;102685.88;;;5.81;56.31
70229;BME280;57617;51.988;5.854;2023-02-28T03:24:05;102686.03;;;5.80;56.26
70229;BME280;57617;51.988;5.854;2023-02-28T03:26:38;102690.00;;;5.76;55.36
70229;BME280;57617;51.988;5.854;2023-02-28T03:29:08;102638.53;;;5.45;56.33
70229;BME280;57617;51.988;5.854;2023-02-28T03:31:45;102682.59;;;5.78;56.19
70229;BME280;57617;51.988;5.854;2023-02-28T03:34:21;102688.00;;;5.78;56.21
70229;BME280;57617;51.988;5.854;2023-02-28T03:36:50;102684.47;;;5.77;55.57
70229;BME280;57617;51.988;5.854;2023-02-28T03:39:21;102689.56;;;5.80;56.35
70229;BME280;57617;51.988;5.854;2023-02-28T03:41:55;102687.41;;;5.84;55.83
70229;BME280;57617;51.988;5.854;2023-02-28T03:44:32;102693.78;;;5.83;55.25
70229;BME280;57617;51.988;5.854;2023-02-28T03:47:12;102692.25;;;5.80;55.98
70229;BME280;57617;51.988;5.854;2023-02-28T03:50:00;102696.94;;;5.78;55.24
70229;BME280;57617;51.988;5.854;2023-02-28T03:52:29;102691.84;;;5.75;55.53
70229;BME280;57617;51.988;5.854;2023-02-28T03:55:00;102693.56;;;5.76;55.36
70229;BME280;57617;51.988;5.854;2023-02-28T03:57:41;102687.00;;;5.79;55.20
70229;BME280;57617;51.988;5.854;2023-02-28T04:00:15;102697.09;;;5.77;54.95
70229;BME280;57617;51.988;5.854;2023-02-28T04:02:43;102690.00;;;5.76;55.21
70229;BME280;57617;51.988;5.854;2023-02-28T04:05:09;102681.47;;;5.80;54.88
70229;BME280;57617;51.988;5.854;2023-02-28T04:07:35;102672.66;;;5.78;54.98
70229;BME280;57617;51.988;5.854;2023-02-28T04:10:00;102670.13;;;5.77;54.73
70229;BME280;57617;51.988;5.854;2023-02-28T04:12:26;102669.47;;;5.75;55.01
70229;BME280;57617;51.988;5.854;2023-02-28T04:14:51;102671.47;;;5.73;54.83
70229;BME280;57617;51.988;5.854;2023-02-28T04:17:17;102671.75;;;5.62;55.65
70229;BME280;57617;51.988;5.854;2023-02-28T04:19:42;102676.69;;;5.66;55.25
70229;BME280;57617;51.988;5.854;2023-02-28T04:22:08;102682.19;;;5.57;54.84
70229;BME280;57617;51.988;5.854;2023-02-28T04:24:34;102671.06;;;5.52;55.62
70229;BME280;57617;51.988;5.854;2023-02-28T04:26:59;102676.94;;;5.55;55.39
70229;BME280;57617;51.988;5.854;2023-02-28T04:29:27;102674.97;;;5.57;55.50
70229;BME280;57617;51.988;5.854;2023-02-28T04:31:53;102678.47;;;5.58;56.12
70229;BME280;57617;51.988;5.854;2023-02-28T04:34:20;102682.53;;;5.54;55.63
70229;BME280;57617;51.988;5.854;2023-02-28T04:36:47;102672.06;;;5.51;55.31
70229;BME280;57617;51.988;5.854;2023-02-28T04:39:14;102651.47;;;5.34;55.59
70229;BME280;57617;51.988;5.854;2023-02-28T04:41:40;102672.22;;;5.49;55.81
70229;BME280;57617;51.988;5.854;2023-02-28T04:44:05;102677.94;;;5.46;55.98
70229;BME280;57617;51.988;5.854;2023-02-28T04:46:30;102682.81;;;5.43;55.84
70229;BME280;57617;51.988;5.854;2023-02-28T04:48:56;102674.38;;;5.38;55.95
70229;BME280;57617;51.988;5.854;2023-02-28T04:51:21;102676.22;;;5.37;56.14
70229;BME280;57617;51.988;5.854;2023-02-28T04:53:48;102676.88;;;5.39;56.31
70229;BME280;57617;51.988;5.854;2023-02-28T04:56:15;102672.50;;;5.30;56.56
70229;BME280;57617;51.988;5.854;2023-02-28T04:58:41;102676.72;;;5.33;56.55
70229;BME280;57617;51.988;5.854;2023-02-28T05:01:16;102674.03;;;5.33;56.63
70229;BME280;57617;51.988;5.854;2023-02-28T05:03:43;102677.53;;;5.33;56.66
70229;BME280;57617;51.988;5.854;2023-02-28T05:06:09;102678.72;;;5.31;56.65
70229;BME280;57617;51.988;5.854;2023-02-28T05:08:34;102677.88;;;5.30;56.73
70229;BME280;57617;51.988;5.854;2023-02-28T05:11:00;102677.53;;;5.33;56.95
70229;BME280;57617;51.988;5.854;2023-02-28T05:13:26;102668.78;;;5.31;56.94
70229;BME280;57617;51.988;5.854;2023-02-28T05:15:52;102681.91;;;5.26;56.71
70229;BME280;57617;51.988;5.854;2023-02-28T05:18:17;102683.88;;;5.24;56.90
70229;BME280;57617;51.988;5.854;2023-02-28T05:20:43;102673.28;;;5.23;57.13
70229;BME280;57617;51.988;5.854;2023-02-28T05:23:11;102676.81;;;5.23;56.99
70229;BME280;57617;51.988;5.854;2023-02-28T05:25:37;102672.28;;;5.24;57.39
70229;BME280;57617;51.988;5.854;2023-02-28T05:28:04;102676.50;;;5.26;56.64
70229;BME280;57617;51.988;5.854;2023-02-28T05:30:29;102673.97;;;5.25;57.13
70229;BME280;57617;51.988;5.854;2023-02-28T05:32:56;102676.97;;;5.22;57.02
70229;BME280;57617;51.988;5.854;2023-02-28T05:35:22;102673.59;;;5.20;57.38
70229;BME280;57617;51.988;5.854;2023-02-28T05:37:47;102685.91;;;5.22;57.29
70229;BME280;57617;51.988;5.854;2023-02-28T05:40:13;102686.56;;;5.16;57.34
70229;BME280;57617;51.988;5.854;2023-02-28T05:42:38;102693.63;;;5.17;57.44
70229;BME280;57617;51.988;5.854;2023-02-28T05:45:05;102704.53;;;5.16;57.43
70229;BME280;57617;51.988;5.854;2023-02-28T05:47:32;102710.72;;;5.08;57.87
70229;BME280;57617;51.988;5.854;2023-02-28T05:49:57;102701.47;;;5.11;57.85
70229;BME280;57617;51.988;5.854;2023-02-28T05:52:22;102695.13;;;5.12;57.77
70229;BME280;57617;51.988;5.854;2023-02-28T05:54:48;102691.09;;;5.16;57.37
70229;BME280;57617;51.988;5.854;2023-02-28T05:57:13;102672.75;;;5.19;57.60
70229;BME280;57617;51.988;5.854;2023-02-28T05:59:39;102681.69;;;5.20;57.53
70229;BME280;57617;51.988;5.854;2023-02-28T06:02:05;102690.25;;;5.15;56.92
70229;BME280;57617;51.988;5.854;2023-02-28T06:04:31;102696.47;;;5.16;57.84
70229;BME280;57617;51.988;5.854;2023-02-28T06:06:56;102684.16;;;5.13;57.62
70229;BME280;57617;51.988;5.854;2023-02-28T06:09:22;102691.22;;;5.14;57.69
70229;BME280;57617;51.988;5.854;2023-02-28T06:11:48;102689.25;;;5.16;57.78
70229;BME280;57617;51.988;5.854;2023-02-28T06:14:18;102698.00;;;5.18;57.59
70229;BME280;57617;51.988;5.854;2023-02-28T06:16:44;102717.34;;;5.14;57.99
70229;BME280;57617;51.988;5.854;2023-02-28T06:19:10;102708.41;;;5.13;58.08
70229;BME280;57617;51.988;5.854;2023-02-28T06:21:35;102703.38;;;5.18;58.09
70229;BME280;57617;51.988;5.854;2023-02-28T06:24:01;102686.44;;;5.26;57.95
70229;BME280;57617;51.988;5.854;2023-02-28T06:26:26;102694.56;;;5.34;57.76
70229;BME280;57617;51.988;5.854;2023-02-28T06:28:51;102698.28;;;5.33;57.77
70229;BME280;57617;51.988;5.854;2023-02-28T06:31:17;102704.47;;;5.33;57.57
70229;BME280;57617;51.988;5.854;2023-02-28T06:33:44;102693.84;;;5.32;57.51
70229;BME280;57617;51.988;5.854;2023-02-28T06:36:11;102715.63;;;5.38;57.64
70229;BME280;57617;51.988;5.854;2023-02-28T06:38:37;102722.03;;;5.37;57.33
70229;BME280;57617;51.988;5.854;2023-02-28T06:41:03;102719.84;;;5.41;57.41
70229;BME280;57617;51.988;5.854;2023-02-28T06:43:30;102716.69;;;5.45;57.73
70229;BME280;57617;51.988;5.854;2023-02-28T06:45:58;102725.28;;;5.49;57.85
70229;BME280;57617;51.988;5.854;2023-02-28T06:48:26;102722.09;;;5.53;57.90
70229;BME280;57617;51.988;5.854;2023-02-28T06:50:51;102721.94;;;5.55;57.16
70229;BME280;57617;51.988;5.854;2023-02-28T06:53:17;102726.00;;;5.59;56.46
70229;BME280;57617;51.988;5.854;2023-02-28T06:55:42;102726.84;;;5.59;56.59
70229;BME280;57617;51.988;5.854;2023-02-28T06:58:07;102728.88;;;5.57;55.74
70229;BME280;57617;51.988;5.854;2023-02-28T07:00:41;102735.63;;;5.61;55.96
70229;BME280;57617;51.988;5.854;2023-02-28T07:03:06;102731.56;;;5.65;55.42
70229;BME280;57617;51.988;5.854;2023-02-28T07:05:34;102733.28;;;5.66;53.95
70229;BME280;57617;51.988;5.854;2023-02-28T07:08:00;102734.97;;;5.67;54.54
70229;BME280;57617;51.988;5.854;2023-02-28T07:10:26;102734.97;;;5.67;54.87
70229;BME280;57617;51.988;5.854;2023-02-28T07:12:51;102733.97;;;5.68;54.32
70229;BME280;57617;51.988;5.854;2023-02-28T07:15:16;102741.91;;;5.70;53.70
70229;BME280;57617;51.988;5.854;2023-02-28T07:17:42;102741.56;;;5.73;53.68
70229;BME280;57617;51.988;5.854;2023-02-28T07:20:07;102740.38;;;5.75;51.53
70229;BME280;57617;51.988;5.854;2023-02-28T07:22:33;102739.22;;;5.78;53.56
70229;BME280;57617;51.988;5.854;2023-02-28T07:24:58;102740.78;;;5.80;52.78
70229;BME280;57617;51.988;5.854;2023-02-28T07:27:23;102737.59;;;5.85;52.73
70229;BME280;57617;51.988;5.854;2023-02-28T07:29:50;102740.81;;;5.88;52.50
70229;BME280;57617;51.988;5.854;2023-02-28T07:32:16;102743.19;;;5.91;52.61
70229;BME280;57617;51.988;5.854;2023-02-28T07:34:41;102751.66;;;5.96;51.79
70229;BME280;57617;51.988;5.854;2023-02-28T07:37:06;102749.09;;;5.95;52.35
70229;BME280;57617;51.988;5.854;2023-02-28T07:39:32;102755.38;;;6.03;51.68
70229;BME280;57617;51.988;5.854;2023-02-28T07:41:57;102754.03;;;6.07;52.11
70229;BME280;57617;51.988;5.854;2023-02-28T07:44:23;102750.31;;;6.08;51.49
70229;BME280;57617;51.988;5.854;2023-02-28T07:46:48;102749.50;;;6.16;51.36
70229;BME280;57617;51.988;5.854;2023-02-28T07:49:13;102744.78;;;6.18;51.75
70229;BME280;57617;51.988;5.854;2023-02-28T07:51:39;102755.56;;;6.18;51.15
70229;BME280;57617;51.988;5.854;2023-02-28T07:54:04;102750.88;;;6.20;50.13
70229;BME280;57617;51.988;5.854;2023-02-28T07:56:30;102749.34;;;6.17;50.05
70229;BME280;57617;51.988;5.854;2023-02-28T07:58:55;102759.47;;;6.23;49.91
70229;BME280;57617;51.988;5.854;2023-02-28T08:01:20;102758.81;;;6.29;50.86
70229;BME280;57617;51.988;5.854;2023-02-28T08:03:46;102754.44;;;6.36;48.03
70229;BME280;57617;51.988;5.854;2023-02-28T08:06:18;102753.91;;;6.33;48.29
70229;BME280;57617;51.988;5.854;2023-02-28T08:08:43;102750.03;;;6.35;49.53
70229;BME280;57617;51.988;5.854;2023-02-28T08:11:09;102766.59;;;6.32;48.83
70229;BME280;57617;51.988;5.854;2023-02-28T08:13:35;102757.31;;;6.35;49.57
70229;BME280;57617;51.988;5.854;2023-02-28T08:16:01;102769.13;;;6.42;49.42
70229;BME280;57617;51.988;5.854;2023-02-28T08:18:26;102766.28;;;6.43;47.71
70229;BME280;57617;51.988;5.854;2023-02-28T08:20:52;102767.09;;;6.44;47.49
70229;BME280;57617;51.988;5.854;2023-02-28T08:23:17;102769.31;;;6.56;47.85
70229;BME280;57617;51.988;5.854;2023-02-28T08:25:42;102768.31;;;6.65;47.99
70229;BME280;57617;51.988;5.854;2023-02-28T08:28:07;102756.34;;;6.76;48.22
70229;BME280;57617;51.988;5.854;2023-02-28T08:30:33;102763.28;;;6.78;47.24
70229;BME280;57617;51.988;5.854;2023-02-28T08:32:58;102762.56;;;6.76;45.64
70229;BME280;57617;51.988;5.854;2023-02-28T08:35:23;102762.75;;;6.75;45.26
70229;BME280;57617;51.988;5.854;2023-02-28T08:37:49;102753.81;;;6.74;46.26
70229;BME280;57617;51.988;5.854;2023-02-28T08:40:15;102751.09;;;6.82;45.33
70229;BME280;57617;51.988;5.854;2023-02-28T08:42:47;102757.16;;;6.92;45.31
70229;BME280;57617;51.988;5.854;2023-02-28T08:45:13;102754.66;;;6.99;45.47
70229;BME280;57617;51.988;5.854;2023-02-28T08:47:39;102759.88;;;7.00;45.13
70229;BME280;57617;51.988;5.854;2023-02-28T08:50:05;102758.69;;;7.03;45.09
70229;BME280;57617;51.988;5.854;2023-02-28T08:52:31;102761.22;;;7.12;45.60
70229;BME280;57617;51.988;5.854;2023-02-28T08:54:56;102755.97;;;7.19;44.78
70229;BME280;57617;51.988;5.854;2023-02-28T08:57:21;102758.34;;;7.22;44.32
70229;BME280;57617;51.988;5.854;2023-02-28T08:59:46;102731.00;;;7.09;44.53
70229;BME280;57617;51.988;5.854;2023-02-28T09:02:13;102751.06;;;7.30;43.54
70229;BME280;57617;51.988;5.854;2023-02-28T09:04:39;102760.19;;;7.21;39.70
70229;BME280;57617;51.988;5.854;2023-02-28T09:07:04;102753.44;;;7.25;43.56
70229;BME280;57617;51.988;5.854;2023-02-28T09:09:29;102766.09;;;7.33;42.17
70229;BME280;57617;51.988;5.854;2023-02-28T09:11:56;102762.22;;;7.35;40.96
70229;BME280;57617;51.988;5.854;2023-02-28T09:14:21;102761.50;;;7.41;38.95
70229;BME280;57617;51.988;5.854;2023-02-28T09:16:46;102757.63;;;7.36;41.82
70229;BME280;57617;51.988;5.854;2023-02-28T09:19:12;102757.47;;;7.37;39.01
70229;BME280;57617;51.988;5.854;2023-02-28T09:21:37;102765.03;;;7.42;39.98
70229;BME280;57617;51.988;5.854;2023-02-28T09:24:03;102760.31;;;7.44;40.66
70229;BME280;57617;51.988;5.854;2023-02-28T09:26:28;102759.31;;;7.45;41.01
70229;BME280;57617;51.988;5.854;2023-02-28T09:28:54;102766.22;;;7.55;41.44
70229;BME280;57617;51.988;5.854;2023-02-28T09:31:22;102769.25;;;7.60;40.89
70229;BME280;57617;51.988;5.854;2023-02-28T09:33:49;102765.16;;;7.64;40.15
70229;BME280;57617;51.988;5.854;2023-02-28T09:36:15;102772.44;;;7.64;41.31
70229;BME280;57617;51.988;5.854;2023-02-28T09:38:40;102771.25;;;7.66;38.76
70229;BME280;57617;51.988;5.854;2023-02-28T09:41:22;102768.19;;;7.69;38.81
70229;BME280;57617;51.988;5.854;2023-02-28T09:43:52;102759.88;;;7.79;40.46
70229;BME280;57617;51.988;5.854;2023-02-28T09:48:51;102761.66;;;7.94;40.44
70229;BME280;57617;51.988;5.854;2023-02-28T09:54:05;102762.16;;;7.98;39.20
70229;BME280;57617;51.988;5.854;2023-02-28T09:56:38;102758.94;;;8.02;38.14
70229;BME280;57617;51.988;5.854;2023-02-28T09:59:18;102757.25;;;8.01;37.52
70229;BME280;57617;51.988;5.854;2023-02-28T10:02:15;102761.94;;;8.07;36.85
70229;BME280;57617;51.988;5.854;2023-02-28T10:04:54;102756.00;;;8.12;37.46
70229;BME280;57617;51.988;5.854;2023-02-28T10:07:41;102758.16;;;8.16;36.84
70229;BME280;57617;51.988;5.854;2023-02-28T10:10:29;102754.13;;;8.20;37.49
70229;BME280;57617;51.988;5.854;2023-02-28T10:12:59;102739.75;;;8.20;39.08
70229;BME280;57617;51.988;5.854;2023-02-28T10:15:30;102742.41;;;8.28;39.17
70229;BME280;57617;51.988;5.854;2023-02-28T10:17:59;102740.00;;;8.33;37.00
70229;BME280;57617;51.988;5.854;2023-02-28T10:20:26;102744.44;;;8.26;38.14
70229;BME280;57617;51.988;5.854;2023-02-28T10:23:20;102743.00;;;8.38;37.26
70229;BME280;57617;51.988;5.854;2023-02-28T10:25:54;102734.47;;;8.49;37.73
70229;BME280;57617;51.988;5.854;2023-02-28T10:28:20;102740.41;;;8.52;38.32
70229;BME280;57617;51.988;5.854;2023-02-28T10:30:48;102744.56;;;8.55;37.91
70229;BME280;57617;51.988;5.854;2023-02-28T10:33:29;102743.66;;;8.62;37.95
70229;BME280;57617;51.988;5.854;2023-02-28T10:35:55;102736.22;;;8.64;38.91
70229;BME280;57617;51.988;5.854;2023-02-28T10:38:23;102739.28;;;8.61;37.58
70229;BME280;57617;51.988;5.854;2023-02-28T10:40:49;102730.25;;;8.69;38.31
70229;BME280;57617;51.988;5.854;2023-02-28T10:45:53;102739.66;;;8.81;36.26
70229;BME280;57617;51.988;5.854;2023-02-28T10:55:43;102721.16;;;8.84;37.56
70229;BME280;57617;51.988;5.854;2023-02-28T10:58:22;102726.19;;;8.87;35.40
70229;BME280;57617;51.988;5.854;2023-02-28T11:00:49;102726.88;;;8.89;37.32
70229;BME280;57617;51.988;5.854;2023-02-28T11:03:32;102720.13;;;8.85;35.33
70229;BME280;57617;51.988;5.854;2023-02-28T11:05:58;102718.56;;;8.91;36.93
70229;BME280;57617;51.988;5.854;2023-02-28T11:08:24;102719.56;;;8.90;37.40
70229;BME280;57617;51.988;5.854;2023-02-28T11:10:58;102712.19;;;8.84;35.51
70229;BME280;57617;51.988;5.854;2023-02-28T11:13:28;102721.06;;;8.92;37.09
70229;BME280;57617;51.988;5.854;2023-02-28T11:15:59;102711.25;;;8.91;37.37
70229;BME280;57617;51.988;5.854;2023-02-28T11:21:03;102693.00;;;9.08;37.07
70229;BME280;57617;51.988;5.854;2023-02-28T11:23:30;102712.06;;;9.14;36.74
70229;BME280;57617;51.988;5.854;2023-02-28T11:26:00;102711.03;;;9.15;37.43
70229;BME280;57617;51.988;5.854;2023-02-28T11:28:32;102707.41;;;9.23;36.91
70229;BME280;57617;51.988;5.854;2023-02-28T11:33:55;102706.66;;;9.14;34.89
70229;BME280;57617;51.988;5.854;2023-02-28T11:36:31;102702.06;;;9.15;34.64
70229;BME280;57617;51.988;5.854;2023-02-28T11:39:07;102695.25;;;9.19;36.77
70229;BME280;57617;51.988;5.854;2023-02-28T11:50:33;102687.59;;;9.51;37.05
70229;BME280;57617;51.988;5.854;2023-02-28T11:56:23;102693.56;;;9.61;35.16
70229;BME280;57617;51.988;5.854;2023-02-28T11:59:35;102685.25;;;9.63;36.53
70229;BME280;57617;51.988;5.854;2023-02-28T12:07:21;102669.50;;;9.73;35.58
70229;BME280;57617;51.988;5.854;2023-02-28T12:15:27;102659.38;;;9.67;34.89
70229;BME280;57617;51.988;5.854;2023-02-28T12:20:34;102662.19;;;9.73;35.88
70229;BME280;57617;51.988;5.854;2023-02-28T12:29:04;102649.16;;;9.83;35.06
70229;BME280;57617;51.988;5.854;2023-02-28T12:31:36;102652.72;;;9.84;33.27
70229;BME280;57617;51.988;5.854;2023-02-28T12:34:07;102644.13;;;9.80;34.86
70229;BME280;57617;51.988;5.854;2023-02-28T12:36:35;102653.97;;;9.81;34.09
70229;BME280;57617;51.988;5.854;2023-02-28T12:39:10;102643.94;;;9.82;33.55
70229;BME280;57617;51.988;5.854;2023-02-28T12:41:56;102642.59;;;9.92;33.81
70229;BME280;57617;51.988;5.854;2023-02-28T12:45:07;102641.75;;;9.92;34.37
70229;BME280;57617;51.988;5.854;2023-02-28T12:47:16;102640.41;;;10.02;34.72
70229;BME280;57617;51.988;5.854;2023-02-28T12:49:59;102631.72;;;10.07;33.52
70229;BME280;57617;51.988;5.854;2023-02-28T12:55:27;102629.03;;;9.92;33.43
70229;BME280;57617;51.988;5.854;2023-02-28T12:58:08;102621.59;;;10.01;33.52
70229;BME280;57617;51.988;5.854;2023-02-28T13:00:56;102618.22;;;10.13;34.35
70229;BME280;57617;51.988;5.854;2023-02-28T13:09:28;102618.59;;;10.10;32.60
70229;BME280;57617;51.988;5.854;2023-02-28T13:11:55;102610.00;;;10.07;33.20
70229;BME280;57617;51.988;5.854;2023-02-28T13:14:28;102609.22;;;10.13;33.26
70229;BME280;57617;51.988;5.854;2023-02-28T13:16:58;102618.72;;;10.23;34.19
70229;BME280;57617;51.988;5.854;2023-02-28T13:19:26;102610.00;;;10.28;33.75
70229;BME280;57617;51.988;5.854;2023-02-28T13:21:53;102609.00;;;10.35;33.98
70229;BME280;57617;51.988;5.854;2023-02-28T13:24:40;102611.53;;;10.37;33.18
70229;BME280;57617;51.988;5.854;2023-02-28T13:29:35;102593.88;;;10.47;33.69
70229;BME280;57617;51.988;5.854;2023-02-28T13:34:39;102598.66;;;10.45;32.82
70229;BME280;57617;51.988;5.854;2023-02-28T13:42:36;102596.59;;;10.47;32.42
70229;BME280;57617;51.988;5.854;2023-02-28T13:47:57;102592.16;;;10.40;32.69
70229;BME280;57617;51.988;5.854;2023-02-28T13:50:29;102600.88;;;10.35;31.44
70229;BME280;57617;51.988;5.854;2023-02-28T13:58:41;102594.13;;;10.52;32.44
70229;BME280;57617;51.988;5.854;2023-02-28T14:01:36;102589.34;;;10.54;32.89
70229;BME280;57617;51.988;5.854;2023-02-28T14:07:04;102578.75;;;10.38;33.42
70229;BME280;57617;51.988;5.854;2023-02-28T14:09:44;102581.28;;;10.40;31.71
70229;BME280;57617;51.988;5.854;2023-02-28T14:17:59;102570.75;;;10.58;33.49
70229;BME280;57617;51.988;5.854;2023-02-28T14:20:30;102556.94;;;10.53;33.17
70229;BME280;57617;51.988;5.854;2023-02-28T14:28:55;102558.81;;;10.52;32.97
70229;BME280;57617;51.988;5.854;2023-02-28T14:31:34;102564.28;;;10.59;32.75
70229;BME280;57617;51.988;5.854;2023-02-28T14:34:20;102569.13;;;10.63;32.83
70229;BME280;57617;51.988;5.854;2023-02-28T14:36:52;102551.19;;;10.69;33.77
70229;BME280;57617;51.988;5.854;2023-02-28T14:39:22;102553.72;;;10.70;32.13
70229;BME280;57617;51.988;5.854;2023-02-28T14:41:49;102559.31;;;10.62;33.23
70229;BME280;57617;51.988;5.854;2023-02-28T14:44:25;102571.84;;;10.63;32.31
70229;BME280;57617;51.988;5.854;2023-02-28T14:46:59;102564.53;;;10.64;32.75
70229;BME280;57617;51.988;5.854;2023-02-28T14:49:35;102557.84;;;10.66;33.40
70229;BME280;57617;51.988;5.854;2023-02-28T14:52:26;102557.72;;;10.74;32.97
70229;BME280;57617;51.988;5.854;2023-02-28T14:55:04;102555.81;;;10.75;32.74
70229;BME280;57617;51.988;5.854;2023-02-28T14:57:40;102548.72;;;10.74;32.63
70229;BME280;57617;51.988;5.854;2023-02-28T15:02:35;102555.56;;;10.63;33.40
70229;BME280;57617;51.988;5.854;2023-02-28T15:05:38;102561.63;;;10.65;32.72
70229;BME280;57617;51.988;5.854;2023-02-28T15:08:13;102563.66;;;10.57;32.73
70229;BME280;57617;51.988;5.854;2023-02-28T15:10:42;102562.78;;;10.56;31.83
70229;BME280;57617;51.988;5.854;2023-02-28T15:13:12;102562.78;;;10.56;33.30
70229;BME280;57617;51.988;5.854;2023-02-28T15:15:55;102543.69;;;10.43;31.86
70229;BME280;57617;51.988;5.854;2023-02-28T15:21:06;102563.66;;;10.57;33.42
70229;BME280;57617;51.988;5.854;2023-02-28T15:23:34;102562.03;;;10.62;33.15
70229;BME280;57617;51.988;5.854;2023-02-28T15:26:02;102557.41;;;10.63;32.48